createdAt,value
2018-01-28T00:01:48.938Z,4.80
2018-01-28T00:04:17.397Z,5.27
2018-01-28T00:06:45.803Z,5.00
2018-01-28T00:09:14.267Z,4.73
2018-01-28T00:11:42.956Z,5.10
2018-01-28T00:14:11.344Z,5.23
2018-01-28T00:16:39.731Z,5.30
2018-01-28T00:19:08.112Z,5.23
2018-01-28T00:21:36.483Z,5.03
2018-01-28T00:24:04.918Z,5.30
2018-01-28T00:26:33.311Z,4.87
2018-01-28T00:29:01.730Z,5.60
2018-01-28T00:31:30.111Z,5.40
2018-01-28T00:33:58.794Z,5.73
2018-01-28T00:36:27.190Z,5.80
2018-01-28T00:38:55.605Z,5.60
2018-01-28T00:41:23.994Z,5.60
2018-01-28T00:43:52.380Z,6.10
2018-01-28T00:46:20.801Z,5.50
2018-01-28T00:48:49.184Z,5.90
2018-01-28T00:51:17.763Z,5.63
2018-01-28T00:53:46.155Z,5.97
2018-01-28T00:56:14.623Z,6.43
2018-01-28T00:58:43.028Z,5.37
2018-01-28T01:01:11.504Z,6.30
2018-01-28T01:03:39.974Z,5.82
2018-01-28T01:06:08.363Z,6.17
2018-01-28T01:08:36.750Z,6.37
2018-01-28T01:11:05.130Z,6.50
2018-01-28T01:13:33.555Z,5.78
2018-01-28T01:16:02.025Z,5.77
2018-01-28T01:18:30.882Z,5.90
2018-01-28T01:20:59.271Z,5.60
2018-01-28T01:23:27.688Z,5.12
2018-01-28T01:25:56.083Z,5.15
2018-01-28T01:28:24.495Z,4.50
2018-01-28T01:30:52.940Z,4.83
2018-01-28T01:33:21.323Z,5.20
2018-01-28T01:35:49.696Z,5.03
2018-01-28T01:38:18.083Z,5.03
2018-01-28T01:40:46.467Z,5.00
2018-01-28T01:43:15.167Z,4.83
2018-01-28T01:45:43.543Z,5.20
2018-01-28T01:48:11.934Z,4.70
2018-01-28T01:50:40.385Z,5.00
2018-01-28T01:53:08.770Z,4.57
2018-01-28T01:55:37.183Z,4.45
2018-01-28T01:58:05.558Z,4.70
2018-01-28T02:00:34.020Z,4.40
2018-01-28T02:03:02.398Z,3.87
2018-01-28T02:05:30.833Z,4.17
2018-01-28T02:07:59.218Z,4.40
2018-01-28T02:10:27.602Z,4.20
2018-01-28T02:12:55.988Z,4.60
2018-01-28T02:15:24.714Z,4.40
2018-01-28T02:17:53.115Z,4.33
2018-01-28T02:20:21.530Z,4.17
2018-01-28T02:22:49.927Z,4.20
2018-01-28T02:25:18.286Z,4.30
2018-01-28T02:27:46.724Z,4.63
2018-01-28T02:30:15.215Z,3.27
2018-01-28T02:32:43.602Z,4.23
2018-01-28T02:35:11.991Z,3.37
2018-01-28T02:37:40.359Z,3.67
2018-01-28T02:40:08.884Z,3.67
2018-01-28T02:42:37.253Z,3.80
2018-01-28T02:45:05.933Z,3.40
2018-01-28T02:47:34.326Z,3.00
2018-01-28T02:50:02.690Z,2.90
2018-01-28T02:52:31.066Z,2.90
2018-01-28T02:54:59.457Z,2.60
2018-01-28T02:57:28.185Z,2.73
2018-01-28T02:59:56.595Z,2.30
2018-01-28T03:02:24.975Z,2.80
2018-01-28T03:04:53.350Z,2.00
2018-01-28T03:07:21.727Z,2.30
2018-01-28T03:09:50.414Z,1.90
2018-01-28T03:12:18.798Z,1.48
2018-01-28T03:14:47.186Z,2.23
2018-01-28T03:17:15.557Z,1.90
2018-01-28T03:19:43.939Z,1.60
2018-01-28T03:22:12.375Z,1.30
2018-01-28T03:24:40.758Z,1.35
2018-01-28T03:27:09.191Z,1.00
2018-01-28T03:29:37.859Z,1.10
2018-01-28T03:32:06.238Z,1.47
2018-01-28T03:34:34.622Z,2.50
2018-01-28T03:37:03.001Z,1.00
2018-01-28T03:39:31.730Z,1.30
2018-01-28T03:42:00.120Z,1.10
2018-01-28T03:44:28.508Z,1.10
2018-01-28T03:46:56.874Z,1.13
2018-01-28T03:49:25.259Z,1.00
2018-01-28T03:51:53.948Z,1.07
2018-01-28T03:54:22.375Z,1.00
2018-01-28T03:56:50.695Z,0.97
2018-01-28T03:59:19.058Z,1.10
2018-01-28T04:01:47.710Z,0.83
2018-01-28T04:04:16.058Z,0.90
2018-01-28T04:06:44.401Z,1.10
2018-01-28T04:09:12.754Z,0.77
2018-01-28T04:11:41.098Z,1.13
2018-01-28T04:14:09.616Z,1.10
2018-01-28T04:16:37.996Z,0.97
2018-01-28T04:19:06.543Z,1.10
2018-01-28T04:21:34.915Z,1.73
2018-01-28T04:24:03.290Z,0.97
2018-01-28T04:26:31.963Z,1.10
2018-01-28T04:29:00.355Z,1.93
2018-01-28T04:31:28.818Z,0.90
2018-01-28T04:33:57.203Z,0.87
2018-01-28T04:36:25.566Z,1.07
2018-01-28T04:38:54.108Z,1.30
2018-01-28T04:41:22.473Z,1.00
2018-01-28T04:43:50.851Z,1.00
2018-01-28T04:46:19.235Z,1.10
2018-01-28T04:48:47.626Z,1.30
2018-01-28T04:51:16.353Z,1.30
2018-01-28T04:53:44.827Z,0.90
2018-01-28T04:56:13.218Z,1.10
2018-01-28T04:58:41.595Z,1.23
2018-01-28T05:01:10.323Z,3.50
2018-01-28T05:03:38.706Z,3.30
2018-01-28T05:06:07.104Z,1.70
2018-01-28T05:08:35.491Z,1.40
2018-01-28T05:11:03.873Z,1.10
2018-01-28T05:13:32.668Z,1.37
2018-01-28T05:16:01.083Z,1.03
2018-01-28T05:18:29.454Z,1.10
2018-01-28T05:20:57.826Z,1.10
2018-01-28T05:23:26.624Z,1.90
2018-01-28T05:25:55.002Z,0.80
2018-01-28T05:28:23.478Z,1.03
2018-01-28T05:30:51.881Z,0.83
2018-01-28T05:33:20.262Z,1.20
2018-01-28T05:35:48.710Z,1.20
2018-01-28T05:38:17.175Z,1.70
2018-01-28T05:40:45.576Z,1.20
2018-01-28T05:43:13.928Z,1.40
2018-01-28T05:45:42.272Z,1.00
2018-01-28T05:48:11.028Z,1.30
2018-01-28T05:50:39.372Z,0.93
2018-01-28T05:53:07.817Z,1.30
2018-01-28T05:55:36.203Z,1.13
2018-01-28T05:58:04.586Z,1.00
2018-01-28T06:00:33.280Z,0.90
2018-01-28T06:03:01.660Z,1.10
2018-01-28T06:05:30.093Z,1.30
2018-01-28T06:07:58.434Z,1.00
2018-01-28T06:10:26.804Z,0.60
2018-01-28T06:12:55.299Z,0.87
2018-01-28T06:15:23.694Z,0.90
2018-01-28T06:17:52.430Z,0.70
2018-01-28T06:20:20.858Z,0.90
2018-01-28T06:22:49.278Z,0.80
2018-01-28T06:25:17.739Z,0.80
2018-01-28T06:27:46.131Z,0.63
2018-01-28T06:30:14.912Z,0.90
2018-01-28T06:32:43.296Z,0.80
2018-01-28T06:35:11.680Z,0.77
2018-01-28T06:37:40.131Z,2.30
2018-01-28T06:40:08.515Z,1.50
2018-01-28T06:42:36.901Z,3.10
2018-01-28T06:45:05.276Z,1.27
2018-01-28T06:47:33.667Z,2.27
2018-01-28T06:50:02.058Z,4.20
2018-01-28T06:52:30.447Z,5.13
2018-01-28T06:54:59.202Z,1.60
2018-01-28T06:57:27.589Z,1.60
2018-01-28T06:59:55.992Z,1.30
2018-01-28T07:02:24.403Z,1.07
2018-01-28T07:04:52.866Z,0.97
2018-01-28T07:07:21.426Z,1.23
2018-01-28T07:09:49.829Z,1.20
2018-01-28T07:12:18.211Z,1.47
2018-01-28T07:14:46.615Z,3.10
2018-01-28T07:17:15.326Z,2.17
2018-01-28T07:19:43.717Z,3.97
2018-01-28T07:22:12.163Z,2.33
2018-01-28T07:24:40.555Z,2.80
2018-01-28T07:27:08.929Z,2.43
2018-01-28T07:29:37.527Z,3.13
2018-01-28T07:32:05.905Z,2.83
2018-01-28T07:34:34.284Z,2.50
2018-01-28T07:37:02.747Z,3.20
2018-01-28T07:39:31.460Z,3.40
2018-01-28T07:41:59.863Z,3.70
2018-01-28T07:44:28.307Z,3.33
2018-01-28T07:46:56.694Z,5.60
2018-01-28T07:49:25.161Z,5.70
2018-01-28T07:51:53.542Z,5.00
2018-01-28T07:54:21.939Z,5.57
2018-01-28T07:56:50.383Z,4.17
2018-01-28T07:59:18.769Z,3.53
2018-01-28T08:01:47.202Z,4.20
2018-01-28T08:04:15.607Z,6.30
2018-01-28T08:06:43.998Z,4.13
2018-01-28T08:09:12.385Z,3.87
2018-01-28T08:14:45.031Z,3.77
2018-01-28T08:17:13.483Z,5.20
2018-01-28T08:19:41.860Z,3.40
2018-01-28T08:22:10.346Z,4.53
2018-01-28T08:24:38.926Z,5.37
2018-01-28T08:27:09.188Z,6.10
2018-01-28T08:29:38.570Z,6.50
2018-01-28T08:32:06.982Z,6.70
2018-01-28T08:34:35.419Z,6.40
2018-01-28T08:37:04.475Z,7.90
2018-01-28T08:39:33.010Z,9.20
2018-01-28T08:42:01.383Z,6.13
2018-01-28T08:44:30.016Z,3.83
2018-01-28T08:46:58.445Z,4.47
2018-01-28T08:49:26.832Z,5.10
2018-01-28T08:51:55.222Z,5.70
2018-01-28T08:54:23.606Z,5.70
2018-01-28T08:56:52.003Z,5.80
2018-01-28T08:59:20.386Z,8.37
2018-01-28T09:01:48.747Z,5.70
2018-01-28T09:04:17.114Z,6.07
2018-01-28T09:06:45.474Z,6.87
2018-01-28T09:09:13.945Z,6.37
2018-01-28T09:11:42.348Z,6.30
2018-01-28T09:14:10.790Z,4.83
2018-01-28T09:16:39.216Z,6.40
2018-01-28T09:19:07.614Z,5.60
2018-01-28T09:21:36.078Z,5.80
2018-01-28T09:24:04.467Z,5.40
2018-01-28T09:26:32.856Z,4.97
2018-01-28T09:29:01.329Z,5.30
2018-01-28T09:31:29.719Z,5.10
2018-01-28T09:33:58.122Z,4.40
2018-01-28T09:36:26.876Z,5.80
2018-01-28T09:38:55.294Z,5.50
2018-01-28T09:41:23.737Z,5.97
2018-01-28T09:43:52.352Z,5.90
2018-01-28T09:46:20.839Z,8.50
2018-01-28T09:48:49.304Z,7.30
2018-01-28T09:51:17.716Z,5.03
2018-01-28T09:53:46.122Z,4.57
2018-01-28T09:56:14.563Z,4.40
2018-01-28T09:58:43.387Z,5.10
2018-01-28T10:01:11.779Z,4.23
2018-01-28T10:03:40.194Z,4.90
2018-01-28T10:06:08.854Z,4.90
2018-01-28T10:08:37.279Z,5.20
2018-01-28T10:11:05.684Z,4.33
2018-01-28T10:13:34.137Z,4.93
2018-01-28T10:16:02.553Z,5.40
2018-01-28T10:18:30.962Z,4.37
2018-01-28T10:20:59.686Z,5.03
2018-01-28T10:23:28.100Z,4.50
2018-01-28T10:25:56.540Z,4.73
2018-01-28T10:28:24.917Z,4.93
2018-01-28T10:30:53.338Z,4.57
2018-01-28T10:33:22.151Z,4.77
2018-01-28T10:35:50.567Z,5.27
2018-01-28T10:38:19.050Z,4.43
2018-01-28T10:40:47.779Z,5.57
2018-01-28T10:43:16.180Z,4.90
2018-01-28T10:45:44.675Z,4.60
2018-01-28T10:48:13.131Z,4.80
2018-01-28T10:50:41.533Z,4.40
2018-01-28T10:53:09.954Z,4.93
2018-01-28T10:55:38.555Z,5.40
2018-01-28T10:58:06.993Z,5.17
2018-01-28T11:00:35.411Z,4.90
2018-01-28T11:03:04.005Z,5.10
2018-01-28T11:05:32.467Z,4.77
2018-01-28T11:08:00.867Z,5.67
2018-01-28T11:10:29.629Z,5.13
2018-01-28T11:12:58.127Z,5.00
2018-01-28T11:15:26.490Z,5.37
2018-01-28T11:17:54.859Z,5.17
2018-01-28T11:20:23.252Z,5.43
2018-01-28T11:22:51.774Z,5.20
2018-01-28T11:25:20.436Z,4.27
2018-01-28T11:27:48.854Z,4.40
2018-01-28T11:30:17.407Z,4.93
2018-01-28T11:32:45.847Z,11.10
2018-01-28T11:35:14.226Z,5.47
2018-01-28T11:37:42.606Z,5.13
2018-01-28T11:40:11.144Z,4.87
2018-01-28T11:42:39.542Z,4.40
2018-01-28T11:45:08.251Z,3.97
2018-01-28T11:47:37.406Z,4.83
2018-01-28T11:50:06.411Z,5.10
2018-01-28T11:52:35.599Z,4.50
2018-01-28T11:55:04.209Z,4.70
2018-01-28T11:57:32.688Z,5.13
2018-01-28T12:00:01.125Z,4.60
2018-01-28T12:02:29.607Z,6.77
2018-01-28T12:04:57.996Z,4.93
2018-01-28T12:07:26.395Z,5.73
2018-01-28T12:09:55.108Z,5.80
2018-01-28T12:12:23.546Z,6.97
2018-01-28T12:14:52.036Z,5.80
2018-01-28T12:17:20.882Z,5.70
2018-01-28T12:19:49.275Z,6.57
2018-01-28T12:22:17.663Z,8.30
2018-01-28T12:24:46.379Z,7.53
2018-01-28T12:27:14.828Z,7.47
2018-01-28T12:29:43.219Z,7.80
2018-01-28T12:32:11.649Z,7.70
2018-01-28T12:34:40.154Z,7.40
2018-01-28T12:37:08.540Z,7.93
2018-01-28T12:39:37.311Z,7.63
2018-01-28T12:42:05.793Z,8.47
2018-01-28T12:44:34.219Z,7.57
2018-01-28T12:47:02.814Z,7.53
2018-01-28T12:49:32.150Z,7.90
2018-01-28T12:52:00.538Z,7.80
2018-01-28T12:54:29.248Z,7.80
2018-01-28T12:56:57.648Z,8.17
2018-01-28T12:59:26.010Z,7.60
2018-01-28T13:01:54.415Z,7.93
2018-01-28T13:04:22.814Z,9.60
2018-01-28T13:06:51.209Z,8.67
2018-01-28T13:09:20.044Z,9.53
2018-01-28T13:11:48.594Z,9.40
2018-01-28T13:14:16.996Z,9.00
2018-01-28T13:16:45.893Z,10.40
2018-01-28T13:19:14.376Z,10.17
2018-01-28T13:21:42.762Z,8.93
2018-01-28T13:24:11.248Z,8.37
2018-01-28T13:26:39.740Z,8.67
2018-01-28T13:29:08.146Z,9.37
2018-01-28T13:31:36.960Z,9.27
2018-01-28T13:34:05.335Z,9.43
2018-01-28T13:36:33.742Z,9.47
2018-01-28T13:39:02.472Z,10.90
2018-01-28T13:41:30.863Z,8.10
2018-01-28T13:43:59.311Z,9.33
2018-01-28T13:46:28.042Z,10.67
2018-01-28T13:48:56.441Z,9.40
2018-01-28T13:51:24.831Z,8.73
2018-01-28T13:53:53.541Z,11.27
2018-01-28T13:56:21.940Z,10.20
2018-01-28T13:58:50.343Z,9.70
2018-01-28T14:01:19.217Z,9.90
2018-01-28T14:03:47.771Z,9.80
2018-01-28T14:06:16.548Z,10.00
2018-01-28T14:08:45.517Z,10.23
2018-01-28T14:11:14.147Z,10.87
2018-01-28T14:13:42.761Z,9.03
2018-01-28T14:16:30.103Z,10.17
2018-01-28T14:18:58.579Z,9.63
2018-01-28T14:21:27.247Z,8.70
2018-01-28T14:23:55.621Z,10.57
2018-01-28T14:26:24.001Z,10.20
2018-01-28T14:28:52.381Z,11.17
2018-01-28T14:31:20.758Z,10.17
2018-01-28T14:33:49.487Z,11.30
2018-01-28T14:36:17.859Z,9.60
2018-01-28T14:38:46.239Z,9.73
2018-01-28T14:41:14.616Z,10.20
2018-01-28T14:43:43.012Z,10.47
2018-01-28T14:46:11.813Z,10.50
2018-01-28T14:48:40.187Z,11.00
2018-01-28T14:51:08.554Z,10.27
2018-01-28T14:53:36.923Z,10.80
2018-01-28T14:56:05.313Z,10.83
2018-01-28T14:58:33.746Z,10.47
2018-01-28T15:01:02.119Z,9.57
2018-01-28T15:03:30.489Z,9.83
2018-01-28T15:05:58.871Z,10.40
2018-01-28T15:08:27.382Z,9.63
2018-01-28T15:10:56.565Z,9.10
2018-01-28T15:13:25.022Z,10.40
2018-01-28T15:15:56.808Z,9.30
2018-01-28T15:18:27.456Z,9.13
2018-01-28T15:20:56.470Z,9.50
2018-01-28T15:23:25.335Z,10.30
2018-01-28T15:25:53.817Z,10.07
2018-01-28T15:28:22.432Z,9.77
2018-01-28T15:30:51.054Z,9.27
2018-01-28T15:33:20.826Z,9.87
2018-01-28T15:35:50.112Z,9.10
2018-01-28T15:38:18.748Z,10.20
2018-01-28T15:40:47.265Z,10.30
2018-01-28T15:43:15.706Z,9.40
2018-01-28T15:45:44.331Z,9.60
2018-01-28T15:48:13.137Z,10.03
2018-01-28T15:50:41.679Z,10.73
2018-01-28T15:53:10.171Z,9.83
2018-01-28T15:55:38.644Z,11.00
2018-01-28T15:58:07.060Z,11.67
2018-01-28T16:00:35.667Z,9.70
2018-01-28T16:03:04.155Z,16.53
2018-01-28T16:05:32.655Z,10.20
2018-01-28T16:08:03.153Z,11.23
2018-01-28T16:10:31.531Z,10.30
2018-01-28T16:13:00.335Z,10.70
2018-01-28T16:15:28.785Z,12.03
2018-01-28T16:17:57.250Z,11.70
2018-01-28T16:20:25.641Z,10.90
2018-01-28T16:22:54.226Z,12.37
2018-01-28T16:25:23.107Z,12.13
2018-01-28T16:27:51.623Z,12.70
2018-01-28T16:30:20.034Z,12.47
2018-01-28T16:32:48.434Z,11.30
2018-01-28T16:35:16.872Z,12.27
2018-01-28T16:37:45.575Z,13.87
2018-01-28T16:40:15.115Z,12.43
2018-01-28T16:42:43.748Z,14.10
2018-01-28T16:45:12.115Z,12.60
2018-01-28T16:47:40.616Z,13.30
2018-01-28T16:50:15.506Z,14.00
2018-01-28T16:52:43.947Z,14.20
2018-01-28T16:55:12.349Z,14.80
2018-01-28T16:57:40.724Z,13.93
2018-01-28T17:00:09.139Z,13.57
2018-01-28T17:02:37.741Z,14.50
2018-01-28T17:05:06.108Z,15.07
2018-01-28T17:07:34.494Z,14.47
2018-01-28T17:10:02.867Z,14.40
2018-01-28T17:12:31.239Z,16.80
2018-01-28T17:14:59.951Z,15.40
2018-01-28T17:17:28.345Z,15.90
2018-01-28T17:19:56.760Z,15.97
2018-01-28T17:22:25.167Z,16.90
2018-01-28T17:24:53.624Z,16.87
2018-01-28T17:27:22.039Z,16.77
2018-01-28T17:29:50.419Z,16.67
2018-01-28T17:32:18.907Z,16.70
2018-01-28T17:34:47.355Z,16.10
2018-01-28T17:37:15.742Z,15.40
2018-01-28T17:39:44.575Z,15.63
2018-01-28T17:42:12.956Z,15.13
2018-01-28T17:44:41.329Z,15.20
2018-01-28T17:47:09.732Z,15.00
2018-01-28T17:49:38.143Z,13.03
2018-01-28T17:52:07.043Z,15.07
2018-01-28T17:54:35.494Z,15.67
2018-01-28T17:57:03.911Z,12.80
2018-01-28T17:59:32.330Z,14.13
2018-01-28T18:02:00.733Z,13.93
2018-01-28T18:04:29.667Z,12.57
2018-01-28T18:06:58.066Z,13.90
2018-01-28T18:09:26.469Z,11.57
2018-01-28T18:11:54.908Z,12.53
2018-01-28T18:14:23.292Z,9.87
2018-01-28T18:16:51.715Z,9.43
2018-01-28T18:19:20.134Z,9.90
2018-01-28T18:21:48.586Z,8.80
2018-01-28T18:24:17.024Z,9.13
2018-01-28T18:26:45.410Z,10.00
2018-01-28T18:29:13.802Z,8.33
2018-01-28T18:31:42.286Z,8.80
2018-01-28T18:34:10.861Z,9.50
2018-01-28T18:36:39.234Z,16.50
2018-01-28T18:39:07.682Z,9.57
2018-01-28T18:41:36.071Z,9.67
2018-01-28T18:44:04.546Z,9.00
2018-01-28T18:46:32.988Z,9.70
2018-01-28T18:49:01.457Z,7.90
2018-01-28T18:51:31.106Z,7.90
2018-01-28T18:53:59.469Z,7.33
2018-01-28T18:56:27.844Z,7.20
2018-01-28T18:58:56.305Z,7.20
2018-01-28T19:01:24.670Z,7.97
2018-01-28T19:03:53.068Z,7.07
2018-01-28T19:06:21.443Z,7.83
2018-01-28T19:08:49.826Z,8.37
2018-01-28T19:11:18.372Z,9.07
2018-01-28T19:13:46.751Z,7.93
2018-01-28T19:16:15.139Z,9.40
2018-01-28T19:18:43.497Z,8.17
2018-01-28T19:21:11.896Z,9.87
2018-01-28T19:23:40.372Z,7.00
2018-01-28T19:26:08.821Z,10.00
2018-01-28T19:28:37.203Z,10.17
2018-01-28T19:31:05.572Z,9.90
2018-01-28T19:33:33.962Z,7.80
2018-01-28T19:36:02.663Z,7.77
2018-01-28T19:38:31.059Z,11.93
2018-01-28T19:40:59.466Z,7.43
2018-01-28T19:43:27.826Z,8.50
2018-01-28T19:45:56.220Z,10.23
2018-01-28T19:48:24.639Z,8.60
2018-01-28T19:50:53.103Z,9.40
2018-01-28T19:53:21.464Z,9.40
2018-01-28T19:55:49.822Z,9.47
2018-01-28T19:58:18.246Z,9.63
2018-01-28T20:00:47.033Z,9.67
2018-01-28T20:03:15.436Z,9.80
2018-01-28T20:05:46.091Z,10.63
2018-01-28T20:08:14.599Z,9.50
2018-01-28T20:10:42.981Z,10.00
2018-01-28T20:13:11.831Z,8.40
2018-01-28T20:15:40.197Z,9.30
2018-01-28T20:18:08.586Z,10.90
2018-01-28T20:20:36.999Z,12.70
2018-01-28T20:23:05.369Z,10.83
2018-01-28T20:25:34.162Z,10.50
2018-01-28T20:28:02.539Z,20.57
2018-01-28T20:30:32.127Z,16.43
2018-01-28T20:35:39.929Z,12.13
2018-01-28T20:38:08.694Z,10.67
2018-01-28T20:40:37.185Z,9.70
2018-01-28T20:43:05.593Z,10.03
2018-01-28T20:45:34.002Z,10.13
2018-01-28T20:48:02.359Z,9.83
2018-01-28T20:50:31.227Z,10.27
2018-01-28T20:53:00.512Z,9.70
2018-01-28T20:55:28.925Z,10.90
2018-01-28T20:57:57.353Z,10.90
2018-01-28T21:00:25.749Z,10.40
2018-01-28T21:02:54.460Z,10.17
2018-01-28T21:09:39.300Z,9.50
2018-01-28T21:12:07.722Z,9.83
2018-01-28T21:14:36.114Z,10.10
2018-01-28T21:17:04.589Z,10.07
2018-01-28T21:19:33.034Z,10.03
2018-01-28T21:22:01.622Z,10.03
2018-01-28T21:24:30.035Z,11.00
2018-01-28T21:26:58.450Z,10.60
2018-01-28T21:29:26.845Z,9.53
2018-01-28T21:31:55.230Z,9.80
2018-01-28T21:34:24.040Z,9.90
2018-01-28T21:36:52.444Z,10.90
2018-01-28T21:39:20.904Z,11.23
2018-01-28T21:41:49.299Z,10.77
2018-01-28T21:44:17.732Z,10.57
2018-01-28T21:46:46.404Z,13.17
2018-01-28T21:49:14.812Z,14.30
2018-01-28T21:51:43.241Z,12.27
2018-01-28T21:54:11.631Z,13.20
2018-01-28T21:56:40.040Z,13.23
2018-01-28T21:59:08.586Z,13.17
2018-01-28T22:01:36.991Z,12.90
2018-01-28T22:04:05.415Z,13.63
2018-01-28T22:06:33.823Z,12.53
2018-01-28T22:09:02.257Z,13.67
2018-01-28T22:11:30.989Z,12.73
2018-01-28T22:13:59.379Z,12.07
2018-01-28T22:16:27.792Z,15.40
2018-01-28T22:18:56.211Z,14.50
2018-01-28T22:21:24.659Z,13.70
2018-01-28T22:23:53.078Z,14.20
2018-01-28T22:26:21.520Z,15.37
2018-01-28T22:28:50.331Z,15.03
2018-01-28T22:31:18.836Z,12.20
2018-01-28T22:33:47.284Z,13.87
2018-01-28T22:36:15.671Z,14.00
2018-01-28T22:38:44.084Z,13.73
2018-01-28T22:41:12.475Z,13.90
2018-01-28T22:43:40.874Z,15.70
2018-01-28T22:46:09.610Z,15.70
2018-01-28T22:48:38.059Z,13.10
2018-01-28T22:51:06.470Z,13.40
2018-01-28T22:53:34.865Z,13.90
2018-01-28T22:56:03.278Z,13.80
2018-01-28T22:58:31.763Z,12.83
2018-01-28T23:01:00.151Z,14.97
2018-01-28T23:03:28.626Z,13.40
2018-01-28T23:05:57.025Z,14.10
2018-01-28T23:08:25.415Z,12.97
2018-01-28T23:10:54.129Z,13.53
2018-01-28T23:13:22.535Z,12.40
2018-01-28T23:15:50.968Z,11.70
2018-01-28T23:18:19.352Z,12.30
2018-01-28T23:20:48.005Z,12.47
2018-01-28T23:23:16.422Z,12.93
2018-01-28T23:25:44.803Z,12.63
2018-01-28T23:28:13.200Z,11.27
2018-01-28T23:30:41.649Z,11.87
2018-01-28T23:33:10.059Z,10.80
2018-01-28T23:35:38.453Z,11.53
2018-01-28T23:38:06.853Z,11.00
2018-01-28T23:43:10.188Z,11.57
2018-01-28T23:45:38.575Z,10.80
2018-01-28T23:48:07.004Z,11.07
2018-01-28T23:50:35.387Z,12.23
2018-01-28T23:53:03.802Z,11.30
2018-01-28T23:55:32.581Z,10.13
2018-01-28T23:58:01.065Z,10.80
